Airfield :
LOGIN :

Register | Disclaimer

   EN    FR    IT 

 










Legend :    VFR   Marginal VFR   IFR   Intensive IFR   Very Intensive IFR
Visi :
Ceiling :
>= 8 km
>= 3000ft
5 to 8 km
1000 to 3000 ft
1500m to 5 km
500 to 1000 ft
800 to 1500m
200 to 500 ft
< 800m
< 200 ft
Symbols :   Thunderstorms  Fog  Heavy snow  Heavy precipitations  Wind > 20 kt
SIGMETs :     Misc.  Thunderstorms  Icing  Turbulence  Mountain Waves  Volcanic Ashes







- Airport Elevation : 31 ft
- IATA code : INV
- Download approach charts


EGPE - Inverness

CURRENT METAR :
  • 151720Z 00000KT 9999 FEW010 BKN048 10/06 Q1014

EXPIRED METARs :
  • 151650Z VRB01KT 9999 FEW010 BKN048 11/06 Q1013
  • 151620Z 20003KT 9999 FEW010 BKN048 12/07 Q1013
  • 151550Z 22007KT 9999 FEW010 BKN048 13/07 Q1013
  • 151520Z 21007KT 9999 FEW010 BKN047 13/07 Q1013
  • 151450Z 22008KT 9999 FEW010 BKN048 13/06 Q1013

TAF TAF EGPE
Valid from the 15 at 18:00 until the 16 at 03:00 UTC


151656Z 1518/1603 19004KT 9999 FEW030
ATIS : +44 1667 464 255
No reported NOTAMs for that airfield.



MET'MAP, your aeronautical weather chart ! - Copyright ORBIFLY December 2007 - Disclaimer

ORBIFLY MET'MAP TEAM :

Programming & Development : Alexandra Zaïnal
Concept & Development : Baudouin d'Aumeries
Co-Development & Prog : Marc-Olivier Méhu
Technical & hardware support : Manuel Goepfert

Contact : metmap@orbifly.com




SOURCES & CREDITS :

   NOAA